sensor_id;sensor_type;location;lat;lon;timestamp;temperature;humidity
37446;DHT22;23307;51.136;14.942;2023-08-30T00:00:09;14.90;99.90
37446;DHT22;23307;51.136;14.942;2023-08-30T00:02:36;14.90;99.90
37446;DHT22;23307;51.136;14.942;2023-08-30T00:05:03;15.00;99.90
37446;DHT22;23307;51.136;14.942;2023-08-30T00:07:29;15.00;99.90
37446;DHT22;23307;51.136;14.942;2023-08-30T00:09:54;15.10;99.90
37446;DHT22;23307;51.136;14.942;2023-08-30T00:12:20;15.20;99.90
37446;DHT22;23307;51.136;14.942;2023-08-30T00:14:47;15.20;99.90
37446;DHT22;23307;51.136;14.942;2023-08-30T00:17:12;15.10;99.90
37446;DHT22;23307;51.136;14.942;2023-08-30T00:19:38;15.10;99.90
37446;DHT22;23307;51.136;14.942;2023-08-30T00:22:03;15.10;99.90
37446;DHT22;23307;51.136;14.942;2023-08-30T00:24:29;15.10;99.90
37446;DHT22;23307;51.136;14.942;2023-08-30T00:26:55;15.10;99.90
37446;DHT22;23307;51.136;14.942;2023-08-30T00:29:20;15.10;99.90
37446;DHT22;23307;51.136;14.942;2023-08-30T00:31:46;15.00;99.90
37446;DHT22;23307;51.136;14.942;2023-08-30T00:34:11;15.00;99.90
37446;DHT22;23307;51.136;14.942;2023-08-30T00:36:37;15.00;99.90
37446;DHT22;23307;51.136;14.942;2023-08-30T00:39:02;15.00;99.90
37446;DHT22;23307;51.136;14.942;2023-08-30T00:41:29;15.00;99.90
37446;DHT22;23307;51.136;14.942;2023-08-30T00:43:54;15.10;99.90
37446;DHT22;23307;51.136;14.942;2023-08-30T00:46:20;15.10;99.90
37446;DHT22;23307;51.136;14.942;2023-08-30T00:48:46;15.10;99.90
37446;DHT22;23307;51.136;14.942;2023-08-30T00:51:11;15.10;99.90
37446;DHT22;23307;51.136;14.942;2023-08-30T00:53:37;15.10;99.90
37446;DHT22;23307;51.136;14.942;2023-08-30T00:56:03;15.10;99.90
37446;DHT22;23307;51.136;14.942;2023-08-30T00:58:29;15.10;99.90
37446;DHT22;23307;51.136;14.942;2023-08-30T01:00:54;15.10;99.90
37446;DHT22;23307;51.136;14.942;2023-08-30T01:03:20;15.10;99.90
37446;DHT22;23307;51.136;14.942;2023-08-30T01:05:47;15.10;99.90
37446;DHT22;23307;51.136;14.942;2023-08-30T01:08:13;15.10;99.90
37446;DHT22;23307;51.136;14.942;2023-08-30T01:10:59;15.10;99.90
37446;DHT22;23307;51.136;14.942;2023-08-30T01:13:28;15.10;99.90
37446;DHT22;23307;51.136;14.942;2023-08-30T01:15:56;15.20;99.90
37446;DHT22;23307;51.136;14.942;2023-08-30T01:18:26;15.20;99.90
37446;DHT22;23307;51.136;14.942;2023-08-30T01:20:55;15.20;99.90
37446;DHT22;23307;51.136;14.942;2023-08-30T01:28:38;15.10;99.90
37446;DHT22;23307;51.136;14.942;2023-08-30T01:31:06;15.10;99.90
37446;DHT22;23307;51.136;14.942;2023-08-30T01:33:33;15.00;99.90
37446;DHT22;23307;51.136;14.942;2023-08-30T01:36:00;15.10;99.90
37446;DHT22;23307;51.136;14.942;2023-08-30T01:38:30;15.10;99.90
37446;DHT22;23307;51.136;14.942;2023-08-30T01:40:58;15.10;99.90
37446;DHT22;23307;51.136;14.942;2023-08-30T01:43:26;15.10;99.90
37446;DHT22;23307;51.136;14.942;2023-08-30T01:45:54;15.10;99.90
37446;DHT22;23307;51.136;14.942;2023-08-30T01:48:22;15.20;99.90
37446;DHT22;23307;51.136;14.942;2023-08-30T01:50:48;15.20;99.90
37446;DHT22;23307;51.136;14.942;2023-08-30T01:53:14;15.30;99.90
37446;DHT22;23307;51.136;14.942;2023-08-30T01:55:41;15.20;99.90
37446;DHT22;23307;51.136;14.942;2023-08-30T01:58:07;15.20;99.90
37446;DHT22;23307;51.136;14.942;2023-08-30T02:00:35;15.20;99.90
37446;DHT22;23307;51.136;14.942;2023-08-30T02:03:13;15.20;99.90
37446;DHT22;23307;51.136;14.942;2023-08-30T02:06:11;15.10;99.90
37446;DHT22;23307;51.136;14.942;2023-08-30T02:08:55;15.20;99.90
37446;DHT22;23307;51.136;14.942;2023-08-30T02:11:23;15.10;99.90
37446;DHT22;23307;51.136;14.942;2023-08-30T02:13:53;15.10;99.90
37446;DHT22;23307;51.136;14.942;2023-08-30T02:16:21;15.20;99.90
37446;DHT22;23307;51.136;14.942;2023-08-30T02:18:48;15.20;99.90
37446;DHT22;23307;51.136;14.942;2023-08-30T02:21:15;15.20;99.90
37446;DHT22;23307;51.136;14.942;2023-08-30T02:23:40;15.20;99.90
37446;DHT22;23307;51.136;14.942;2023-08-30T02:26:06;15.30;99.90
37446;DHT22;23307;51.136;14.942;2023-08-30T02:28:31;15.20;99.90
37446;DHT22;23307;51.136;14.942;2023-08-30T02:30:57;15.30;99.90
37446;DHT22;23307;51.136;14.942;2023-08-30T02:33:22;15.30;99.90
37446;DHT22;23307;51.136;14.942;2023-08-30T02:35:48;15.30;99.90
37446;DHT22;23307;51.136;14.942;2023-08-30T02:38:13;15.20;99.90
37446;DHT22;23307;51.136;14.942;2023-08-30T02:40:39;15.20;99.90
37446;DHT22;23307;51.136;14.942;2023-08-30T02:43:04;15.20;99.90
37446;DHT22;23307;51.136;14.942;2023-08-30T02:45:30;15.10;99.90
37446;DHT22;23307;51.136;14.942;2023-08-30T02:47:56;15.10;99.90
37446;DHT22;23307;51.136;14.942;2023-08-30T02:50:24;15.10;99.90
37446;DHT22;23307;51.136;14.942;2023-08-30T02:52:50;15.10;99.90
37446;DHT22;23307;51.136;14.942;2023-08-30T02:55:16;15.10;99.90
37446;DHT22;23307;51.136;14.942;2023-08-30T02:57:42;15.10;99.90
37446;DHT22;23307;51.136;14.942;2023-08-30T03:00:07;15.10;99.90
37446;DHT22;23307;51.136;14.942;2023-08-30T03:02:34;15.00;99.90
37446;DHT22;23307;51.136;14.942;2023-08-30T03:04:59;15.00;99.90
37446;DHT22;23307;51.136;14.942;2023-08-30T03:07:25;14.90;99.90
37446;DHT22;23307;51.136;14.942;2023-08-30T03:09:54;14.90;99.90
37446;DHT22;23307;51.136;14.942;2023-08-30T03:12:20;14.80;99.90
37446;DHT22;23307;51.136;14.942;2023-08-30T03:14:46;14.80;99.90
37446;DHT22;23307;51.136;14.942;2023-08-30T03:17:11;14.80;99.90
37446;DHT22;23307;51.136;14.942;2023-08-30T03:19:37;14.80;99.90
37446;DHT22;23307;51.136;14.942;2023-08-30T03:22:02;14.80;99.90
37446;DHT22;23307;51.136;14.942;2023-08-30T03:24:28;14.70;99.90
37446;DHT22;23307;51.136;14.942;2023-08-30T03:26:54;14.70;99.90
37446;DHT22;23307;51.136;14.942;2023-08-30T03:29:19;14.70;99.90
37446;DHT22;23307;51.136;14.942;2023-08-30T03:31:45;14.80;99.90
37446;DHT22;23307;51.136;14.942;2023-08-30T03:34:10;14.80;99.90
37446;DHT22;23307;51.136;14.942;2023-08-30T03:36:37;14.70;99.90
37446;DHT22;23307;51.136;14.942;2023-08-30T03:39:03;14.80;99.90
37446;DHT22;23307;51.136;14.942;2023-08-30T03:41:28;14.70;99.90
37446;DHT22;23307;51.136;14.942;2023-08-30T03:43:54;14.70;99.90
37446;DHT22;23307;51.136;14.942;2023-08-30T03:46:19;14.60;99.90
37446;DHT22;23307;51.136;14.942;2023-08-30T03:48:45;14.60;99.90
37446;DHT22;23307;51.136;14.942;2023-08-30T03:51:10;14.70;99.90
37446;DHT22;23307;51.136;14.942;2023-08-30T03:53:36;14.60;99.90
37446;DHT22;23307;51.136;14.942;2023-08-30T03:56:01;14.60;99.90
37446;DHT22;23307;51.136;14.942;2023-08-30T03:58:28;14.70;99.90
37446;DHT22;23307;51.136;14.942;2023-08-30T04:00:54;14.70;99.90
37446;DHT22;23307;51.136;14.942;2023-08-30T04:03:20;14.60;99.90
37446;DHT22;23307;51.136;14.942;2023-08-30T04:05:45;14.70;99.90
37446;DHT22;23307;51.136;14.942;2023-08-30T04:08:11;14.70;99.90
37446;DHT22;23307;51.136;14.942;2023-08-30T04:10:41;14.70;99.90
37446;DHT22;23307;51.136;14.942;2023-08-30T04:13:08;14.70;99.90
37446;DHT22;23307;51.136;14.942;2023-08-30T04:15:37;14.70;99.90
37446;DHT22;23307;51.136;14.942;2023-08-30T04:18:03;14.70;99.90
37446;DHT22;23307;51.136;14.942;2023-08-30T04:20:30;14.70;99.90
37446;DHT22;23307;51.136;14.942;2023-08-30T04:22:55;14.80;99.90
37446;DHT22;23307;51.136;14.942;2023-08-30T04:25:22;14.70;99.90
37446;DHT22;23307;51.136;14.942;2023-08-30T04:27:48;14.70;99.90
37446;DHT22;23307;51.136;14.942;2023-08-30T04:30:14;14.80;99.90
37446;DHT22;23307;51.136;14.942;2023-08-30T04:32:40;14.70;99.90
37446;DHT22;23307;51.136;14.942;2023-08-30T04:35:06;14.80;99.90
37446;DHT22;23307;51.136;14.942;2023-08-30T04:37:32;14.80;99.90
37446;DHT22;23307;51.136;14.942;2023-08-30T04:39:57;14.80;99.90
37446;DHT22;23307;51.136;14.942;2023-08-30T04:42:23;14.70;99.90
37446;DHT22;23307;51.136;14.942;2023-08-30T04:44:48;14.70;99.90
37446;DHT22;23307;51.136;14.942;2023-08-30T04:47:14;14.70;99.90
37446;DHT22;23307;51.136;14.942;2023-08-30T04:49:39;14.70;99.90
37446;DHT22;23307;51.136;14.942;2023-08-30T04:52:05;14.70;99.90
37446;DHT22;23307;51.136;14.942;2023-08-30T04:54:31;14.80;99.90
37446;DHT22;23307;51.136;14.942;2023-08-30T04:56:56;14.80;99.90
37446;DHT22;23307;51.136;14.942;2023-08-30T04:59:22;14.80;99.90
37446;DHT22;23307;51.136;14.942;2023-08-30T05:01:47;14.80;99.90
37446;DHT22;23307;51.136;14.942;2023-08-30T05:04:13;14.80;99.90
37446;DHT22;23307;51.136;14.942;2023-08-30T05:06:39;14.90;99.90
37446;DHT22;23307;51.136;14.942;2023-08-30T05:09:04;14.80;99.90
37446;DHT22;23307;51.136;14.942;2023-08-30T05:11:30;14.90;99.90
37446;DHT22;23307;51.136;14.942;2023-08-30T05:13:56;14.80;99.90
37446;DHT22;23307;51.136;14.942;2023-08-30T05:16:21;14.80;99.90
37446;DHT22;23307;51.136;14.942;2023-08-30T05:18:47;14.80;99.90
37446;DHT22;23307;51.136;14.942;2023-08-30T05:21:15;14.70;99.90
37446;DHT22;23307;51.136;14.942;2023-08-30T05:23:41;14.80;99.90
37446;DHT22;23307;51.136;14.942;2023-08-30T05:26:10;14.80;99.90
37446;DHT22;23307;51.136;14.942;2023-08-30T05:28:38;14.80;99.90
37446;DHT22;23307;51.136;14.942;2023-08-30T05:31:03;14.70;99.90
37446;DHT22;23307;51.136;14.942;2023-08-30T05:33:29;14.70;99.90
37446;DHT22;23307;51.136;14.942;2023-08-30T05:35:54;14.60;99.90
37446;DHT22;23307;51.136;14.942;2023-08-30T05:38:20;14.60;99.90
37446;DHT22;23307;51.136;14.942;2023-08-30T05:40:45;14.50;99.90
37446;DHT22;23307;51.136;14.942;2023-08-30T05:43:11;14.50;99.90
37446;DHT22;23307;51.136;14.942;2023-08-30T05:45:37;14.50;99.90
37446;DHT22;23307;51.136;14.942;2023-08-30T05:48:03;14.40;99.90
37446;DHT22;23307;51.136;14.942;2023-08-30T05:50:29;14.40;99.90
37446;DHT22;23307;51.136;14.942;2023-08-30T05:52:54;14.40;99.90
37446;DHT22;23307;51.136;14.942;2023-08-30T05:55:20;14.40;99.90
37446;DHT22;23307;51.136;14.942;2023-08-30T05:57:46;14.40;99.90
37446;DHT22;23307;51.136;14.942;2023-08-30T06:00:12;14.40;99.90
37446;DHT22;23307;51.136;14.942;2023-08-30T06:02:38;14.40;99.90
37446;DHT22;23307;51.136;14.942;2023-08-30T06:05:04;14.40;99.90
37446;DHT22;23307;51.136;14.942;2023-08-30T06:07:30;14.40;99.90
37446;DHT22;23307;51.136;14.942;2023-08-30T06:09:55;14.40;99.90
37446;DHT22;23307;51.136;14.942;2023-08-30T06:12:21;14.50;99.90
37446;DHT22;23307;51.136;14.942;2023-08-30T06:14:46;14.50;99.90
37446;DHT22;23307;51.136;14.942;2023-08-30T06:17:17;14.60;99.90
37446;DHT22;23307;51.136;14.942;2023-08-30T06:19:43;14.60;99.90
37446;DHT22;23307;51.136;14.942;2023-08-30T06:22:08;14.60;99.90
37446;DHT22;23307;51.136;14.942;2023-08-30T06:24:34;14.70;99.90
37446;DHT22;23307;51.136;14.942;2023-08-30T06:26:59;14.70;99.90
37446;DHT22;23307;51.136;14.942;2023-08-30T06:29:25;14.70;99.90
37446;DHT22;23307;51.136;14.942;2023-08-30T06:31:51;14.70;99.90
37446;DHT22;23307;51.136;14.942;2023-08-30T06:34:16;14.80;99.90
37446;DHT22;23307;51.136;14.942;2023-08-30T06:36:42;14.80;99.90
37446;DHT22;23307;51.136;14.942;2023-08-30T06:39:07;14.80;99.90
37446;DHT22;23307;51.136;14.942;2023-08-30T06:41:33;14.70;99.90
37446;DHT22;23307;51.136;14.942;2023-08-30T06:43:58;14.70;99.90
37446;DHT22;23307;51.136;14.942;2023-08-30T06:46:24;14.70;99.90
37446;DHT22;23307;51.136;14.942;2023-08-30T06:48:49;14.70;99.90
37446;DHT22;23307;51.136;14.942;2023-08-30T06:51:15;14.70;99.90
37446;DHT22;23307;51.136;14.942;2023-08-30T06:53:40;14.70;99.90
37446;DHT22;23307;51.136;14.942;2023-08-30T06:56:06;14.70;99.90
37446;DHT22;23307;51.136;14.942;2023-08-30T06:58:31;14.70;99.90
37446;DHT22;23307;51.136;14.942;2023-08-30T07:00:57;14.70;99.90
37446;DHT22;23307;51.136;14.942;2023-08-30T07:03:23;14.70;99.90
37446;DHT22;23307;51.136;14.942;2023-08-30T07:05:51;14.70;99.90
37446;DHT22;23307;51.136;14.942;2023-08-30T07:08:17;14.70;99.90
37446;DHT22;23307;51.136;14.942;2023-08-30T07:10:43;14.70;99.90
37446;DHT22;23307;51.136;14.942;2023-08-30T07:13:08;14.60;99.90
37446;DHT22;23307;51.136;14.942;2023-08-30T07:15:41;14.60;99.90
37446;DHT22;23307;51.136;14.942;2023-08-30T07:18:08;14.60;99.90
37446;DHT22;23307;51.136;14.942;2023-08-30T07:20:34;14.60;99.90
37446;DHT22;23307;51.136;14.942;2023-08-30T07:23:00;14.60;99.90
37446;DHT22;23307;51.136;14.942;2023-08-30T07:25:26;14.70;99.90
37446;DHT22;23307;51.136;14.942;2023-08-30T07:27:52;14.80;99.90
37446;DHT22;23307;51.136;14.942;2023-08-30T07:30:18;14.80;99.90
37446;DHT22;23307;51.136;14.942;2023-08-30T07:32:43;14.90;99.90
37446;DHT22;23307;51.136;14.942;2023-08-30T07:35:09;14.90;99.90
37446;DHT22;23307;51.136;14.942;2023-08-30T07:37:35;15.00;99.90
37446;DHT22;23307;51.136;14.942;2023-08-30T07:40:01;15.00;99.90
37446;DHT22;23307;51.136;14.942;2023-08-30T07:42:29;15.10;99.90
37446;DHT22;23307;51.136;14.942;2023-08-30T07:44:55;15.20;99.90
37446;DHT22;23307;51.136;14.942;2023-08-30T07:47:20;15.20;99.90
37446;DHT22;23307;51.136;14.942;2023-08-30T07:49:46;15.20;99.90
37446;DHT22;23307;51.136;14.942;2023-08-30T07:52:11;15.20;99.90
37446;DHT22;23307;51.136;14.942;2023-08-30T07:54:40;15.30;99.90
37446;DHT22;23307;51.136;14.942;2023-08-30T07:57:06;15.30;99.90
37446;DHT22;23307;51.136;14.942;2023-08-30T07:59:35;15.40;99.90
37446;DHT22;23307;51.136;14.942;2023-08-30T08:02:02;15.40;99.90
37446;DHT22;23307;51.136;14.942;2023-08-30T08:04:28;15.50;99.90
37446;DHT22;23307;51.136;14.942;2023-08-30T08:06:54;15.50;99.90
37446;DHT22;23307;51.136;14.942;2023-08-30T08:09:19;15.60;99.90
37446;DHT22;23307;51.136;14.942;2023-08-30T08:11:48;15.80;99.90
37446;DHT22;23307;51.136;14.942;2023-08-30T08:14:13;15.90;99.90
37446;DHT22;23307;51.136;14.942;2023-08-30T08:16:39;16.00;99.90
37446;DHT22;23307;51.136;14.942;2023-08-30T08:19:04;16.00;99.90
37446;DHT22;23307;51.136;14.942;2023-08-30T08:21:31;16.00;99.90
37446;DHT22;23307;51.136;14.942;2023-08-30T08:23:57;16.00;99.90
37446;DHT22;23307;51.136;14.942;2023-08-30T08:26:22;16.00;99.90
37446;DHT22;23307;51.136;14.942;2023-08-30T08:28:48;16.00;99.90
37446;DHT22;23307;51.136;14.942;2023-08-30T08:31:13;16.10;99.90
37446;DHT22;23307;51.136;14.942;2023-08-30T08:33:39;16.20;99.90
37446;DHT22;23307;51.136;14.942;2023-08-30T08:36:05;16.30;99.90
37446;DHT22;23307;51.136;14.942;2023-08-30T08:38:30;16.30;99.90
37446;DHT22;23307;51.136;14.942;2023-08-30T08:41:05;16.30;99.90
37446;DHT22;23307;51.136;14.942;2023-08-30T08:43:32;16.30;99.90
37446;DHT22;23307;51.136;14.942;2023-08-30T08:46:00;16.40;99.90
37446;DHT22;23307;51.136;14.942;2023-08-30T08:48:28;16.40;99.90
37446;DHT22;23307;51.136;14.942;2023-08-30T08:50:54;16.40;99.90
37446;DHT22;23307;51.136;14.942;2023-08-30T08:53:21;16.40;99.90
37446;DHT22;23307;51.136;14.942;2023-08-30T08:55:48;16.50;99.90
37446;DHT22;23307;51.136;14.942;2023-08-30T08:58:15;16.60;99.90
37446;DHT22;23307;51.136;14.942;2023-08-30T09:00:44;16.50;99.90
37446;DHT22;23307;51.136;14.942;2023-08-30T09:03:10;16.50;99.90
37446;DHT22;23307;51.136;14.942;2023-08-30T09:05:37;16.50;99.90
37446;DHT22;23307;51.136;14.942;2023-08-30T09:08:04;16.50;99.90
37446;DHT22;23307;51.136;14.942;2023-08-30T09:10:31;16.40;99.90
37446;DHT22;23307;51.136;14.942;2023-08-30T09:12:58;16.40;99.90
37446;DHT22;23307;51.136;14.942;2023-08-30T09:15:33;16.40;99.90
37446;DHT22;23307;51.136;14.942;2023-08-30T09:17:59;16.30;99.90
37446;DHT22;23307;51.136;14.942;2023-08-30T09:20:25;16.30;99.90
37446;DHT22;23307;51.136;14.942;2023-08-30T09:22:51;16.30;99.90
37446;DHT22;23307;51.136;14.942;2023-08-30T09:25:26;16.30;99.90
37446;DHT22;23307;51.136;14.942;2023-08-30T09:27:59;16.30;99.90
37446;DHT22;23307;51.136;14.942;2023-08-30T09:30:25;16.30;99.90
37446;DHT22;23307;51.136;14.942;2023-08-30T09:32:51;16.30;99.90
37446;DHT22;23307;51.136;14.942;2023-08-30T09:35:16;16.30;99.90
37446;DHT22;23307;51.136;14.942;2023-08-30T09:37:44;16.40;99.90
37446;DHT22;23307;51.136;14.942;2023-08-30T09:40:11;16.40;99.90
37446;DHT22;23307;51.136;14.942;2023-08-30T09:42:41;16.40;99.90
37446;DHT22;23307;51.136;14.942;2023-08-30T09:45:17;16.40;99.90
37446;DHT22;23307;51.136;14.942;2023-08-30T09:47:47;16.60;99.90
37446;DHT22;23307;51.136;14.942;2023-08-30T09:50:15;16.70;99.90
37446;DHT22;23307;51.136;14.942;2023-08-30T09:52:42;16.70;99.90
37446;DHT22;23307;51.136;14.942;2023-08-30T09:55:08;16.70;99.90
37446;DHT22;23307;51.136;14.942;2023-08-30T09:57:35;16.80;99.90
37446;DHT22;23307;51.136;14.942;2023-08-30T10:00:01;16.80;99.90
37446;DHT22;23307;51.136;14.942;2023-08-30T10:02:30;16.80;99.90
37446;DHT22;23307;51.136;14.942;2023-08-30T10:04:56;16.80;99.90
37446;DHT22;23307;51.136;14.942;2023-08-30T10:07:23;16.80;99.90
37446;DHT22;23307;51.136;14.942;2023-08-30T10:09:50;16.70;99.90
37446;DHT22;23307;51.136;14.942;2023-08-30T10:12:20;16.60;99.90
37446;DHT22;23307;51.136;14.942;2023-08-30T10:14:47;16.50;99.90
37446;DHT22;23307;51.136;14.942;2023-08-30T10:17:14;16.60;99.90
37446;DHT22;23307;51.136;14.942;2023-08-30T10:19:43;16.70;99.90
37446;DHT22;23307;51.136;14.942;2023-08-30T10:22:11;16.70;99.90
37446;DHT22;23307;51.136;14.942;2023-08-30T10:24:46;16.80;99.90
37446;DHT22;23307;51.136;14.942;2023-08-30T10:27:13;16.90;99.90
37446;DHT22;23307;51.136;14.942;2023-08-30T10:29:41;16.90;99.90
37446;DHT22;23307;51.136;14.942;2023-08-30T10:32:07;17.00;99.90
37446;DHT22;23307;51.136;14.942;2023-08-30T10:34:36;17.00;99.90
37446;DHT22;23307;51.136;14.942;2023-08-30T10:37:05;17.20;99.90
37446;DHT22;23307;51.136;14.942;2023-08-30T10:39:36;17.20;99.90
37446;DHT22;23307;51.136;14.942;2023-08-30T10:42:12;17.20;99.90
37446;DHT22;23307;51.136;14.942;2023-08-30T10:45:06;17.20;99.90
37446;DHT22;23307;51.136;14.942;2023-08-30T10:47:35;17.40;99.90
37446;DHT22;23307;51.136;14.942;2023-08-30T10:50:11;17.60;99.90
37446;DHT22;23307;51.136;14.942;2023-08-30T10:52:37;17.80;99.90
37446;DHT22;23307;51.136;14.942;2023-08-30T10:55:10;17.70;99.90
37446;DHT22;23307;51.136;14.942;2023-08-30T10:57:41;17.70;99.90
37446;DHT22;23307;51.136;14.942;2023-08-30T11:02:50;17.80;99.90
37446;DHT22;23307;51.136;14.942;2023-08-30T11:05:17;17.80;99.90
37446;DHT22;23307;51.136;14.942;2023-08-30T11:07:43;17.90;99.90
37446;DHT22;23307;51.136;14.942;2023-08-30T11:10:09;18.00;99.90
37446;DHT22;23307;51.136;14.942;2023-08-30T11:12:35;18.10;99.90
37446;DHT22;23307;51.136;14.942;2023-08-30T11:15:02;18.20;99.90
37446;DHT22;23307;51.136;14.942;2023-08-30T11:17:29;18.30;99.90
37446;DHT22;23307;51.136;14.942;2023-08-30T11:20:06;18.30;99.90
37446;DHT22;23307;51.136;14.942;2023-08-30T11:22:36;18.20;99.90
37446;DHT22;23307;51.136;14.942;2023-08-30T11:25:02;18.30;99.90
37446;DHT22;23307;51.136;14.942;2023-08-30T11:27:29;18.40;99.90
37446;DHT22;23307;51.136;14.942;2023-08-30T11:29:59;18.50;99.90
37446;DHT22;23307;51.136;14.942;2023-08-30T11:32:25;18.70;99.90
37446;DHT22;23307;51.136;14.942;2023-08-30T11:34:57;18.70;99.90
37446;DHT22;23307;51.136;14.942;2023-08-30T11:37:26;18.70;99.90
37446;DHT22;23307;51.136;14.942;2023-08-30T11:39:53;18.70;99.90
37446;DHT22;23307;51.136;14.942;2023-08-30T11:42:19;18.70;99.90
37446;DHT22;23307;51.136;14.942;2023-08-30T11:44:45;18.80;99.90
37446;DHT22;23307;51.136;14.942;2023-08-30T11:47:11;19.00;99.90
37446;DHT22;23307;51.136;14.942;2023-08-30T11:49:36;19.00;99.90
37446;DHT22;23307;51.136;14.942;2023-08-30T11:52:04;19.10;99.90
37446;DHT22;23307;51.136;14.942;2023-08-30T11:54:30;19.10;99.90
37446;DHT22;23307;51.136;14.942;2023-08-30T11:56:56;19.00;99.90
37446;DHT22;23307;51.136;14.942;2023-08-30T11:59:22;18.90;99.90
37446;DHT22;23307;51.136;14.942;2023-08-30T12:01:54;19.00;99.90
37446;DHT22;23307;51.136;14.942;2023-08-30T12:04:20;19.00;99.90
37446;DHT22;23307;51.136;14.942;2023-08-30T12:06:54;19.10;99.90
37446;DHT22;23307;51.136;14.942;2023-08-30T12:09:20;19.10;99.90
37446;DHT22;23307;51.136;14.942;2023-08-30T12:11:49;19.20;99.90
37446;DHT22;23307;51.136;14.942;2023-08-30T12:14:14;19.20;99.90
37446;DHT22;23307;51.136;14.942;2023-08-30T12:16:40;19.20;99.90
37446;DHT22;23307;51.136;14.942;2023-08-30T12:19:10;19.30;99.90
37446;DHT22;23307;51.136;14.942;2023-08-30T12:21:40;19.50;99.90
37446;DHT22;23307;51.136;14.942;2023-08-30T12:24:07;19.60;99.90
37446;DHT22;23307;51.136;14.942;2023-08-30T12:26:33;19.70;99.90
37446;DHT22;23307;51.136;14.942;2023-08-30T12:28:59;19.80;99.90
37446;DHT22;23307;51.136;14.942;2023-08-30T12:31:24;20.00;99.90
37446;DHT22;23307;51.136;14.942;2023-08-30T12:33:51;20.10;99.90
37446;DHT22;23307;51.136;14.942;2023-08-30T12:36:17;20.20;99.90
37446;DHT22;23307;51.136;14.942;2023-08-30T12:38:42;20.30;99.90
37446;DHT22;23307;51.136;14.942;2023-08-30T12:41:08;20.40;99.90
37446;DHT22;23307;51.136;14.942;2023-08-30T12:43:34;20.60;99.90
37446;DHT22;23307;51.136;14.942;2023-08-30T12:46:00;20.70;99.90
37446;DHT22;23307;51.136;14.942;2023-08-30T12:48:26;21.00;99.90
37446;DHT22;23307;51.136;14.942;2023-08-30T12:50:53;21.10;99.90
37446;DHT22;23307;51.136;14.942;2023-08-30T12:53:19;21.40;99.90
37446;DHT22;23307;51.136;14.942;2023-08-30T12:55:45;21.40;99.90
37446;DHT22;23307;51.136;14.942;2023-08-30T12:58:11;21.50;99.90
37446;DHT22;23307;51.136;14.942;2023-08-30T13:00:38;21.50;99.90
37446;DHT22;23307;51.136;14.942;2023-08-30T13:03:04;21.60;99.90
37446;DHT22;23307;51.136;14.942;2023-08-30T13:05:29;22.10;99.90
37446;DHT22;23307;51.136;14.942;2023-08-30T13:07:59;22.40;99.90
37446;DHT22;23307;51.136;14.942;2023-08-30T13:10:25;22.30;99.90
37446;DHT22;23307;51.136;14.942;2023-08-30T13:12:50;22.40;99.90
37446;DHT22;23307;51.136;14.942;2023-08-30T13:15:16;23.00;99.90
37446;DHT22;23307;51.136;14.942;2023-08-30T13:17:42;23.00;99.90
37446;DHT22;23307;51.136;14.942;2023-08-30T13:20:10;23.10;99.90
37446;DHT22;23307;51.136;14.942;2023-08-30T13:22:36;23.10;99.90
37446;DHT22;23307;51.136;14.942;2023-08-30T13:25:02;23.40;99.90
37446;DHT22;23307;51.136;14.942;2023-08-30T13:27:29;23.30;99.90
37446;DHT22;23307;51.136;14.942;2023-08-30T13:29:56;23.50;99.90
37446;DHT22;23307;51.136;14.942;2023-08-30T13:32:21;23.70;99.90
37446;DHT22;23307;51.136;14.942;2023-08-30T13:34:47;23.60;99.90
37446;DHT22;23307;51.136;14.942;2023-08-30T13:37:13;23.50;99.90
37446;DHT22;23307;51.136;14.942;2023-08-30T13:39:39;23.40;99.90
37446;DHT22;23307;51.136;14.942;2023-08-30T13:42:05;23.20;99.90
37446;DHT22;23307;51.136;14.942;2023-08-30T13:44:30;23.10;99.90
37446;DHT22;23307;51.136;14.942;2023-08-30T13:46:57;22.90;99.90
37446;DHT22;23307;51.136;14.942;2023-08-30T13:49:22;22.70;99.90
37446;DHT22;23307;51.136;14.942;2023-08-30T13:51:48;22.60;99.90
37446;DHT22;23307;51.136;14.942;2023-08-30T13:54:13;22.60;99.90
37446;DHT22;23307;51.136;14.942;2023-08-30T13:56:39;22.60;99.90
37446;DHT22;23307;51.136;14.942;2023-08-30T13:59:04;22.60;99.90
37446;DHT22;23307;51.136;14.942;2023-08-30T14:01:31;22.40;99.90
37446;DHT22;23307;51.136;14.942;2023-08-30T14:03:57;22.20;99.90
37446;DHT22;23307;51.136;14.942;2023-08-30T14:06:22;21.80;99.90
37446;DHT22;23307;51.136;14.942;2023-08-30T14:08:48;21.60;99.90
37446;DHT22;23307;51.136;14.942;2023-08-30T14:11:13;21.50;99.90
37446;DHT22;23307;51.136;14.942;2023-08-30T14:13:39;21.60;99.90
37446;DHT22;23307;51.136;14.942;2023-08-30T14:16:05;21.70;99.90
37446;DHT22;23307;51.136;14.942;2023-08-30T14:18:31;21.80;99.90
37446;DHT22;23307;51.136;14.942;2023-08-30T14:20:57;22.00;99.90
37446;DHT22;23307;51.136;14.942;2023-08-30T14:23:27;22.20;99.90
37446;DHT22;23307;51.136;14.942;2023-08-30T14:26:19;22.30;99.90
37446;DHT22;23307;51.136;14.942;2023-08-30T14:28:44;22.40;99.90
37446;DHT22;23307;51.136;14.942;2023-08-30T14:31:10;22.70;99.90
37446;DHT22;23307;51.136;14.942;2023-08-30T14:33:36;23.00;99.90
37446;DHT22;23307;51.136;14.942;2023-08-30T14:36:02;23.40;99.90
37446;DHT22;23307;51.136;14.942;2023-08-30T14:38:28;23.60;99.90
37446;DHT22;23307;51.136;14.942;2023-08-30T14:40:55;24.00;99.90
37446;DHT22;23307;51.136;14.942;2023-08-30T14:43:21;24.20;99.90
37446;DHT22;23307;51.136;14.942;2023-08-30T14:45:47;24.10;99.60
37446;DHT22;23307;51.136;14.942;2023-08-30T14:48:12;23.90;98.30
37446;DHT22;23307;51.136;14.942;2023-08-30T14:50:38;23.80;97.70
37446;DHT22;23307;51.136;14.942;2023-08-30T14:53:03;23.40;97.70
37446;DHT22;23307;51.136;14.942;2023-08-30T14:55:29;23.10;99.50
37446;DHT22;23307;51.136;14.942;2023-08-30T14:57:55;22.80;99.90
37446;DHT22;23307;51.136;14.942;2023-08-30T15:00:20;22.70;99.90
37446;DHT22;23307;51.136;14.942;2023-08-30T15:02:46;22.80;99.90
37446;DHT22;23307;51.136;14.942;2023-08-30T15:05:11;23.00;99.90
37446;DHT22;23307;51.136;14.942;2023-08-30T15:07:37;23.50;99.90
37446;DHT22;23307;51.136;14.942;2023-08-30T15:10:03;24.20;99.90
37446;DHT22;23307;51.136;14.942;2023-08-30T15:12:29;24.20;99.90
37446;DHT22;23307;51.136;14.942;2023-08-30T15:14:54;23.80;98.80
37446;DHT22;23307;51.136;14.942;2023-08-30T15:17:20;23.40;99.20
37446;DHT22;23307;51.136;14.942;2023-08-30T15:19:46;23.10;99.90